sensor_id;sensor_type;location;lat;lon;timestamp;P1;durP1;ratioP1;P2;durP2;ratioP2
10882;SDS011;5494;51.796;10.952;2022-11-30T00:01:33;241.77;;;34.17;;
10882;SDS011;5494;51.796;10.952;2022-11-30T00:04:01;342.63;;;40.30;;
10882;SDS011;5494;51.796;10.952;2022-11-30T00:06:30;236.00;;;39.77;;
10882;SDS011;5494;51.796;10.952;2022-11-30T00:08:59;214.43;;;37.33;;
10882;SDS011;5494;51.796;10.952;2022-11-30T00:11:27;247.43;;;34.10;;
10882;SDS011;5494;51.796;10.952;2022-11-30T00:13:57;338.17;;;40.13;;
10882;SDS011;5494;51.796;10.952;2022-11-30T00:16:26;246.53;;;35.50;;
10882;SDS011;5494;51.796;10.952;2022-11-30T00:18:54;170.47;;;31.13;;
10882;SDS011;5494;51.796;10.952;2022-11-30T00:21:23;280.97;;;37.73;;
10882;SDS011;5494;51.796;10.952;2022-11-30T00:23:51;308.47;;;39.47;;
10882;SDS011;5494;51.796;10.952;2022-11-30T00:26:20;258.20;;;38.17;;
10882;SDS011;5494;51.796;10.952;2022-11-30T00:28:49;315.17;;;39.13;;
10882;SDS011;5494;51.796;10.952;2022-11-30T00:31:17;182.77;;;35.07;;
10882;SDS011;5494;51.796;10.952;2022-11-30T00:33:46;191.63;;;32.70;;
10882;SDS011;5494;51.796;10.952;2022-11-30T00:36:16;157.77;;;31.17;;
10882;SDS011;5494;51.796;10.952;2022-11-30T00:38:47;235.50;;;36.60;;
10882;SDS011;5494;51.796;10.952;2022-11-30T00:41:17;244.47;;;35.07;;
10882;SDS011;5494;51.796;10.952;2022-11-30T00:43:48;222.43;;;29.17;;
10882;SDS011;5494;51.796;10.952;2022-11-30T00:46:17;261.80;;;34.87;;
10882;SDS011;5494;51.796;10.952;2022-11-30T00:48:46;206.90;;;30.30;;
10882;SDS011;5494;51.796;10.952;2022-11-30T00:51:14;176.53;;;27.67;;
10882;SDS011;5494;51.796;10.952;2022-11-30T00:53:43;123.73;;;26.30;;
10882;SDS011;5494;51.796;10.952;2022-11-30T00:56:12;163.03;;;32.43;;
10882;SDS011;5494;51.796;10.952;2022-11-30T00:58:41;98.83;;;24.30;;
10882;SDS011;5494;51.796;10.952;2022-11-30T01:01:10;110.07;;;22.43;;
10882;SDS011;5494;51.796;10.952;2022-11-30T01:03:39;173.70;;;25.80;;
10882;SDS011;5494;51.796;10.952;2022-11-30T01:06:08;167.10;;;26.60;;
10882;SDS011;5494;51.796;10.952;2022-11-30T01:08:36;155.80;;;29.23;;
10882;SDS011;5494;51.796;10.952;2022-11-30T01:11:05;147.17;;;29.27;;
10882;SDS011;5494;51.796;10.952;2022-11-30T01:13:38;119.37;;;25.13;;
10882;SDS011;5494;51.796;10.952;2022-11-30T01:16:07;172.60;;;29.30;;
10882;SDS011;5494;51.796;10.952;2022-11-30T01:18:41;184.27;;;27.30;;
10882;SDS011;5494;51.796;10.952;2022-11-30T01:21:11;207.57;;;34.57;;
10882;SDS011;5494;51.796;10.952;2022-11-30T01:23:41;197.23;;;29.73;;
10882;SDS011;5494;51.796;10.952;2022-11-30T01:26:11;80.90;;;21.93;;
10882;SDS011;5494;51.796;10.952;2022-11-30T01:28:40;108.40;;;25.37;;
10882;SDS011;5494;51.796;10.952;2022-11-30T01:31:12;99.43;;;26.37;;
10882;SDS011;5494;51.796;10.952;2022-11-30T01:33:41;73.07;;;24.57;;
10882;SDS011;5494;51.796;10.952;2022-11-30T01:36:10;106.90;;;25.77;;
10882;SDS011;5494;51.796;10.952;2022-11-30T01:38:42;116.63;;;24.10;;
10882;SDS011;5494;51.796;10.952;2022-11-30T01:41:13;165.53;;;28.07;;
10882;SDS011;5494;51.796;10.952;2022-11-30T01:43:45;128.60;;;26.20;;
10882;SDS011;5494;51.796;10.952;2022-11-30T01:46:27;154.57;;;26.60;;
10882;SDS011;5494;51.796;10.952;2022-11-30T01:49:04;145.57;;;29.40;;
10882;SDS011;5494;51.796;10.952;2022-11-30T01:51:45;99.80;;;24.17;;
10882;SDS011;5494;51.796;10.952;2022-11-30T01:54:19;202.87;;;31.17;;
10882;SDS011;5494;51.796;10.952;2022-11-30T01:56:56;145.00;;;28.13;;
10882;SDS011;5494;51.796;10.952;2022-11-30T01:59:36;159.77;;;27.47;;
10882;SDS011;5494;51.796;10.952;2022-11-30T02:02:05;128.67;;;25.77;;
10882;SDS011;5494;51.796;10.952;2022-11-30T02:04:34;147.20;;;25.43;;
10882;SDS011;5494;51.796;10.952;2022-11-30T02:07:05;149.90;;;26.83;;
10882;SDS011;5494;51.796;10.952;2022-11-30T02:09:35;231.30;;;30.07;;
10882;SDS011;5494;51.796;10.952;2022-11-30T02:14:47;126.30;;;24.33;;
10882;SDS011;5494;51.796;10.952;2022-11-30T02:17:25;199.50;;;29.53;;
10882;SDS011;5494;51.796;10.952;2022-11-30T02:20:20;147.43;;;27.37;;
10882;SDS011;5494;51.796;10.952;2022-11-30T02:23:12;102.63;;;22.60;;
10882;SDS011;5494;51.796;10.952;2022-11-30T02:26:13;89.47;;;22.57;;
10882;SDS011;5494;51.796;10.952;2022-11-30T02:29:04;203.87;;;30.97;;
10882;SDS011;5494;51.796;10.952;2022-11-30T02:31:43;91.43;;;21.63;;
10882;SDS011;5494;51.796;10.952;2022-11-30T02:34:19;107.67;;;22.37;;
10882;SDS011;5494;51.796;10.952;2022-11-30T02:36:54;76.53;;;20.77;;
10882;SDS011;5494;51.796;10.952;2022-11-30T02:39:24;150.87;;;24.07;;
10882;SDS011;5494;51.796;10.952;2022-11-30T02:41:52;176.13;;;25.87;;
10882;SDS011;5494;51.796;10.952;2022-11-30T02:44:21;186.30;;;27.93;;
10882;SDS011;5494;51.796;10.952;2022-11-30T02:47:04;219.90;;;29.07;;
10882;SDS011;5494;51.796;10.952;2022-11-30T02:49:47;157.97;;;26.80;;
10882;SDS011;5494;51.796;10.952;2022-11-30T02:52:22;169.53;;;27.83;;
10882;SDS011;5494;51.796;10.952;2022-11-30T02:54:57;171.00;;;30.57;;
10882;SDS011;5494;51.796;10.952;2022-11-30T02:57:27;176.07;;;32.50;;
10882;SDS011;5494;51.796;10.952;2022-11-30T02:59:56;212.97;;;28.47;;
10882;SDS011;5494;51.796;10.952;2022-11-30T03:02:28;206.67;;;27.77;;
10882;SDS011;5494;51.796;10.952;2022-11-30T03:04:56;110.93;;;25.13;;
10882;SDS011;5494;51.796;10.952;2022-11-30T03:07:24;87.20;;;23.27;;
10882;SDS011;5494;51.796;10.952;2022-11-30T03:09:52;142.87;;;30.77;;
10882;SDS011;5494;51.796;10.952;2022-11-30T03:12:20;87.57;;;20.83;;
10882;SDS011;5494;51.796;10.952;2022-11-30T03:14:48;161.17;;;25.93;;
10882;SDS011;5494;51.796;10.952;2022-11-30T03:17:18;158.73;;;24.63;;
10882;SDS011;5494;51.796;10.952;2022-11-30T03:19:46;133.63;;;25.00;;
10882;SDS011;5494;51.796;10.952;2022-11-30T03:22:14;158.00;;;24.80;;
10882;SDS011;5494;51.796;10.952;2022-11-30T03:24:42;142.60;;;24.20;;
10882;SDS011;5494;51.796;10.952;2022-11-30T03:27:10;172.07;;;24.90;;
10882;SDS011;5494;51.796;10.952;2022-11-30T03:29:39;158.90;;;26.87;;
10882;SDS011;5494;51.796;10.952;2022-11-30T03:32:07;99.57;;;21.97;;
10882;SDS011;5494;51.796;10.952;2022-11-30T03:34:36;165.90;;;27.50;;
10882;SDS011;5494;51.796;10.952;2022-11-30T03:37:04;93.50;;;24.10;;
10882;SDS011;5494;51.796;10.952;2022-11-30T03:39:32;116.53;;;22.80;;
10882;SDS011;5494;51.796;10.952;2022-11-30T03:42:00;116.63;;;24.13;;
10882;SDS011;5494;51.796;10.952;2022-11-30T03:44:28;114.63;;;22.50;;
10882;SDS011;5494;51.796;10.952;2022-11-30T03:46:56;81.93;;;21.00;;
10882;SDS011;5494;51.796;10.952;2022-11-30T03:49:24;45.83;;;18.03;;
10882;SDS011;5494;51.796;10.952;2022-11-30T03:51:54;61.33;;;20.10;;
10882;SDS011;5494;51.796;10.952;2022-11-30T03:54:22;111.07;;;23.53;;
10882;SDS011;5494;51.796;10.952;2022-11-30T03:56:50;90.60;;;19.40;;
10882;SDS011;5494;51.796;10.952;2022-11-30T03:59:18;71.10;;;20.40;;
10882;SDS011;5494;51.796;10.952;2022-11-30T04:01:46;49.50;;;18.67;;
10882;SDS011;5494;51.796;10.952;2022-11-30T04:04:14;49.00;;;18.90;;
10882;SDS011;5494;51.796;10.952;2022-11-30T04:06:42;97.17;;;20.67;;
10882;SDS011;5494;51.796;10.952;2022-11-30T04:09:11;45.57;;;18.93;;
10882;SDS011;5494;51.796;10.952;2022-11-30T04:11:39;64.47;;;18.73;;
10882;SDS011;5494;51.796;10.952;2022-11-30T04:14:07;117.87;;;20.40;;
10882;SDS011;5494;51.796;10.952;2022-11-30T04:16:35;55.10;;;18.17;;
10882;SDS011;5494;51.796;10.952;2022-11-30T04:19:03;128.40;;;22.67;;
10882;SDS011;5494;51.796;10.952;2022-11-30T04:21:31;108.47;;;22.03;;
10882;SDS011;5494;51.796;10.952;2022-11-30T04:23:59;80.73;;;20.87;;
10882;SDS011;5494;51.796;10.952;2022-11-30T04:26:29;53.73;;;18.00;;
10882;SDS011;5494;51.796;10.952;2022-11-30T04:28:57;66.73;;;18.80;;
10882;SDS011;5494;51.796;10.952;2022-11-30T04:31:29;62.30;;;20.30;;
10882;SDS011;5494;51.796;10.952;2022-11-30T04:33:57;73.00;;;20.57;;
10882;SDS011;5494;51.796;10.952;2022-11-30T04:36:26;59.23;;;21.70;;
10882;SDS011;5494;51.796;10.952;2022-11-30T04:38:53;62.73;;;20.03;;
10882;SDS011;5494;51.796;10.952;2022-11-30T04:41:21;55.17;;;18.53;;
10882;SDS011;5494;51.796;10.952;2022-11-30T04:43:51;95.03;;;22.07;;
10882;SDS011;5494;51.796;10.952;2022-11-30T04:46:19;69.23;;;20.27;;
10882;SDS011;5494;51.796;10.952;2022-11-30T04:48:47;50.57;;;19.23;;
10882;SDS011;5494;51.796;10.952;2022-11-30T04:51:15;110.00;;;23.87;;
10882;SDS011;5494;51.796;10.952;2022-11-30T04:53:43;78.77;;;19.43;;
10882;SDS011;5494;51.796;10.952;2022-11-30T04:56:11;65.80;;;19.80;;
10882;SDS011;5494;51.796;10.952;2022-11-30T04:58:39;165.00;;;25.90;;
10882;SDS011;5494;51.796;10.952;2022-11-30T05:01:08;77.67;;;21.90;;
10882;SDS011;5494;51.796;10.952;2022-11-30T05:03:36;83.43;;;20.33;;
10882;SDS011;5494;51.796;10.952;2022-11-30T05:06:04;152.87;;;27.53;;
10882;SDS011;5494;51.796;10.952;2022-11-30T05:08:32;54.83;;;19.70;;
10882;SDS011;5494;51.796;10.952;2022-11-30T05:11:00;41.63;;;18.83;;
10882;SDS011;5494;51.796;10.952;2022-11-30T05:13:29;71.93;;;20.30;;
10882;SDS011;5494;51.796;10.952;2022-11-30T05:15:57;59.73;;;19.73;;
10882;SDS011;5494;51.796;10.952;2022-11-30T05:18:26;64.53;;;20.33;;
10882;SDS011;5494;51.796;10.952;2022-11-30T05:20:56;109.23;;;21.10;;
10882;SDS011;5494;51.796;10.952;2022-11-30T05:23:24;70.87;;;20.87;;
10882;SDS011;5494;51.796;10.952;2022-11-30T05:25:52;144.17;;;26.60;;
10882;SDS011;5494;51.796;10.952;2022-11-30T05:28:20;71.67;;;20.20;;
10882;SDS011;5494;51.796;10.952;2022-11-30T05:30:48;60.93;;;20.10;;
10882;SDS011;5494;51.796;10.952;2022-11-30T05:33:16;127.93;;;23.00;;
10882;SDS011;5494;51.796;10.952;2022-11-30T05:35:46;119.43;;;24.83;;
10882;SDS011;5494;51.796;10.952;2022-11-30T05:38:15;81.93;;;20.97;;
10882;SDS011;5494;51.796;10.952;2022-11-30T05:40:43;72.33;;;20.87;;
10882;SDS011;5494;51.796;10.952;2022-11-30T05:43:11;111.90;;;22.53;;
10882;SDS011;5494;51.796;10.952;2022-11-30T05:45:39;89.43;;;21.63;;
10882;SDS011;5494;51.796;10.952;2022-11-30T05:48:07;62.87;;;20.77;;
10882;SDS011;5494;51.796;10.952;2022-11-30T05:50:35;54.90;;;20.53;;
10882;SDS011;5494;51.796;10.952;2022-11-30T05:53:05;34.67;;;20.37;;
10882;SDS011;5494;51.796;10.952;2022-11-30T05:55:33;54.70;;;19.03;;
10882;SDS011;5494;51.796;10.952;2022-11-30T05:58:01;32.90;;;16.80;;
10882;SDS011;5494;51.796;10.952;2022-11-30T06:00:29;33.10;;;18.40;;
10882;SDS011;5494;51.796;10.952;2022-11-30T06:02:57;38.20;;;19.90;;
10882;SDS011;5494;51.796;10.952;2022-11-30T06:05:26;41.10;;;18.97;;
10882;SDS011;5494;51.796;10.952;2022-11-30T06:07:57;36.47;;;18.13;;
10882;SDS011;5494;51.796;10.952;2022-11-30T06:10:27;53.10;;;18.53;;
10882;SDS011;5494;51.796;10.952;2022-11-30T06:12:55;35.03;;;17.80;;
10882;SDS011;5494;51.796;10.952;2022-11-30T06:15:23;30.97;;;17.80;;
10882;SDS011;5494;51.796;10.952;2022-11-30T06:17:52;34.13;;;17.63;;
10882;SDS011;5494;51.796;10.952;2022-11-30T06:20:21;90.83;;;19.90;;
10882;SDS011;5494;51.796;10.952;2022-11-30T06:22:49;67.17;;;19.20;;
10882;SDS011;5494;51.796;10.952;2022-11-30T06:25:19;41.40;;;22.20;;
10882;SDS011;5494;51.796;10.952;2022-11-30T06:27:48;38.83;;;18.20;;
10882;SDS011;5494;51.796;10.952;2022-11-30T06:30:17;39.27;;;19.03;;
10882;SDS011;5494;51.796;10.952;2022-11-30T06:32:45;38.50;;;19.93;;
10882;SDS011;5494;51.796;10.952;2022-11-30T06:35:15;108.57;;;24.57;;
10882;SDS011;5494;51.796;10.952;2022-11-30T06:37:44;173.73;;;27.67;;
10882;SDS011;5494;51.796;10.952;2022-11-30T06:40:13;66.77;;;21.27;;
10882;SDS011;5494;51.796;10.952;2022-11-30T06:42:42;111.73;;;26.80;;
10882;SDS011;5494;51.796;10.952;2022-11-30T06:45:11;53.87;;;23.83;;
10882;SDS011;5494;51.796;10.952;2022-11-30T06:47:39;59.30;;;22.27;;
10882;SDS011;5494;51.796;10.952;2022-11-30T06:50:08;46.87;;;19.10;;
10882;SDS011;5494;51.796;10.952;2022-11-30T06:52:36;40.40;;;21.03;;
10882;SDS011;5494;51.796;10.952;2022-11-30T06:55:04;34.97;;;19.97;;
10882;SDS011;5494;51.796;10.952;2022-11-30T06:57:33;33.93;;;20.73;;
10882;SDS011;5494;51.796;10.952;2022-11-30T07:00:02;31.40;;;18.53;;
10882;SDS011;5494;51.796;10.952;2022-11-30T07:02:35;31.43;;;18.87;;
10882;SDS011;5494;51.796;10.952;2022-11-30T07:05:03;30.83;;;18.07;;
10882;SDS011;5494;51.796;10.952;2022-11-30T07:07:32;28.70;;;16.47;;
10882;SDS011;5494;51.796;10.952;2022-11-30T07:10:00;28.40;;;18.23;;
10882;SDS011;5494;51.796;10.952;2022-11-30T07:12:28;30.33;;;17.30;;
10882;SDS011;5494;51.796;10.952;2022-11-30T07:14:56;28.50;;;17.67;;
10882;SDS011;5494;51.796;10.952;2022-11-30T07:17:24;27.70;;;16.83;;
10882;SDS011;5494;51.796;10.952;2022-11-30T07:19:54;29.30;;;17.50;;
10882;SDS011;5494;51.796;10.952;2022-11-30T07:22:22;32.87;;;18.90;;
10882;SDS011;5494;51.796;10.952;2022-11-30T07:24:50;33.97;;;19.87;;
10882;SDS011;5494;51.796;10.952;2022-11-30T07:27:36;28.63;;;16.40;;
10882;SDS011;5494;51.796;10.952;2022-11-30T07:30:04;28.47;;;16.87;;
10882;SDS011;5494;51.796;10.952;2022-11-30T07:32:34;25.70;;;15.43;;
10882;SDS011;5494;51.796;10.952;2022-11-30T07:35:03;26.17;;;16.33;;
10882;SDS011;5494;51.796;10.952;2022-11-30T07:37:32;24.70;;;15.43;;
10882;SDS011;5494;51.796;10.952;2022-11-30T07:40:00;29.70;;;16.97;;
10882;SDS011;5494;51.796;10.952;2022-11-30T07:42:28;29.27;;;17.00;;
10882;SDS011;5494;51.796;10.952;2022-11-30T07:44:57;35.00;;;20.23;;
10882;SDS011;5494;51.796;10.952;2022-11-30T07:47:25;51.13;;;19.40;;
10882;SDS011;5494;51.796;10.952;2022-11-30T07:49:53;29.37;;;17.93;;
10882;SDS011;5494;51.796;10.952;2022-11-30T07:52:22;29.97;;;17.10;;
10882;SDS011;5494;51.796;10.952;2022-11-30T07:54:50;27.63;;;16.67;;
10882;SDS011;5494;51.796;10.952;2022-11-30T07:57:19;31.70;;;17.33;;
10882;SDS011;5494;51.796;10.952;2022-11-30T07:59:47;27.10;;;16.47;;
10882;SDS011;5494;51.796;10.952;2022-11-30T08:02:15;33.13;;;16.90;;
10882;SDS011;5494;51.796;10.952;2022-11-30T08:04:43;50.07;;;18.50;;
10882;SDS011;5494;51.796;10.952;2022-11-30T08:07:12;101.77;;;20.33;;
10882;SDS011;5494;51.796;10.952;2022-11-30T08:09:42;60.23;;;18.77;;
10882;SDS011;5494;51.796;10.952;2022-11-30T08:12:11;39.97;;;16.77;;
10882;SDS011;5494;51.796;10.952;2022-11-30T08:14:39;32.90;;;14.93;;
10882;SDS011;5494;51.796;10.952;2022-11-30T08:17:27;52.13;;;17.57;;
10882;SDS011;5494;51.796;10.952;2022-11-30T08:19:55;35.00;;;16.77;;
10882;SDS011;5494;51.796;10.952;2022-11-30T08:22:23;42.47;;;18.53;;
10882;SDS011;5494;51.796;10.952;2022-11-30T08:24:52;29.30;;;14.77;;
10882;SDS011;5494;51.796;10.952;2022-11-30T08:27:21;26.53;;;15.23;;
10882;SDS011;5494;51.796;10.952;2022-11-30T08:29:49;23.93;;;15.50;;
10882;SDS011;5494;51.796;10.952;2022-11-30T08:32:17;27.80;;;17.27;;
10882;SDS011;5494;51.796;10.952;2022-11-30T08:34:45;28.77;;;17.57;;
10882;SDS011;5494;51.796;10.952;2022-11-30T08:37:15;37.03;;;18.37;;
10882;SDS011;5494;51.796;10.952;2022-11-30T08:39:44;29.40;;;15.93;;
10882;SDS011;5494;51.796;10.952;2022-11-30T08:42:13;29.30;;;15.53;;
10882;SDS011;5494;51.796;10.952;2022-11-30T08:44:41;32.20;;;16.07;;
10882;SDS011;5494;51.796;10.952;2022-11-30T08:47:09;39.83;;;19.50;;
10882;SDS011;5494;51.796;10.952;2022-11-30T08:49:38;54.20;;;18.20;;
10882;SDS011;5494;51.796;10.952;2022-11-30T08:52:07;67.17;;;20.70;;
10882;SDS011;5494;51.796;10.952;2022-11-30T08:54:44;63.20;;;18.47;;
10882;SDS011;5494;51.796;10.952;2022-11-30T08:57:16;54.07;;;19.23;;
10882;SDS011;5494;51.796;10.952;2022-11-30T08:59:46;123.10;;;22.03;;
10882;SDS011;5494;51.796;10.952;2022-11-30T09:02:16;97.40;;;21.40;;
10882;SDS011;5494;51.796;10.952;2022-11-30T09:04:46;87.80;;;20.63;;
10882;SDS011;5494;51.796;10.952;2022-11-30T09:07:16;33.97;;;16.83;;
10882;SDS011;5494;51.796;10.952;2022-11-30T09:09:44;50.03;;;18.57;;
10882;SDS011;5494;51.796;10.952;2022-11-30T09:12:13;36.53;;;17.03;;
10882;SDS011;5494;51.796;10.952;2022-11-30T09:14:42;27.93;;;15.63;;
10882;SDS011;5494;51.796;10.952;2022-11-30T09:17:17;30.40;;;15.20;;
10882;SDS011;5494;51.796;10.952;2022-11-30T09:19:45;24.80;;;14.87;;
10882;SDS011;5494;51.796;10.952;2022-11-30T09:22:13;34.53;;;17.97;;
10882;SDS011;5494;51.796;10.952;2022-11-30T09:24:41;28.87;;;15.90;;
10882;SDS011;5494;51.796;10.952;2022-11-30T09:27:10;25.17;;;15.63;;
10882;SDS011;5494;51.796;10.952;2022-11-30T09:29:38;25.83;;;14.13;;
10882;SDS011;5494;51.796;10.952;2022-11-30T09:32:08;26.00;;;14.43;;
10882;SDS011;5494;51.796;10.952;2022-11-30T09:34:36;24.63;;;15.23;;
10882;SDS011;5494;51.796;10.952;2022-11-30T09:37:04;27.73;;;16.30;;
10882;SDS011;5494;51.796;10.952;2022-11-30T09:39:32;28.87;;;15.20;;
10882;SDS011;5494;51.796;10.952;2022-11-30T09:42:15;27.90;;;15.67;;
10882;SDS011;5494;51.796;10.952;2022-11-30T09:45:00;26.37;;;15.33;;
10882;SDS011;5494;51.796;10.952;2022-11-30T09:47:41;25.63;;;14.80;;
10882;SDS011;5494;51.796;10.952;2022-11-30T09:50:36;27.77;;;15.80;;
10882;SDS011;5494;51.796;10.952;2022-11-30T09:53:10;25.20;;;15.43;;
10882;SDS011;5494;51.796;10.952;2022-11-30T09:55:55;27.77;;;16.30;;
10882;SDS011;5494;51.796;10.952;2022-11-30T09:58:28;27.87;;;16.40;;
10882;SDS011;5494;51.796;10.952;2022-11-30T10:01:14;31.07;;;17.13;;
10882;SDS011;5494;51.796;10.952;2022-11-30T10:03:47;26.97;;;16.30;;
10882;SDS011;5494;51.796;10.952;2022-11-30T10:06:18;25.23;;;15.60;;
10882;SDS011;5494;51.796;10.952;2022-11-30T10:09:04;27.10;;;16.53;;
10882;SDS011;5494;51.796;10.952;2022-11-30T10:11:54;26.23;;;15.27;;
10882;SDS011;5494;51.796;10.952;2022-11-30T10:14:38;24.03;;;15.97;;
10882;SDS011;5494;51.796;10.952;2022-11-30T10:17:34;25.43;;;14.93;;
10882;SDS011;5494;51.796;10.952;2022-11-30T10:20:22;26.73;;;16.17;;
10882;SDS011;5494;51.796;10.952;2022-11-30T10:23:15;26.67;;;15.23;;
10882;SDS011;5494;51.796;10.952;2022-11-30T10:26:05;26.73;;;15.03;;
10882;SDS011;5494;51.796;10.952;2022-11-30T10:28:40;32.33;;;16.73;;
10882;SDS011;5494;51.796;10.952;2022-11-30T10:31:17;37.57;;;15.77;;
10882;SDS011;5494;51.796;10.952;2022-11-30T10:33:48;58.93;;;17.10;;
10882;SDS011;5494;51.796;10.952;2022-11-30T10:36:22;41.30;;;17.10;;
10882;SDS011;5494;51.796;10.952;2022-11-30T10:38:56;54.23;;;17.37;;
10882;SDS011;5494;51.796;10.952;2022-11-30T10:41:30;66.07;;;20.23;;
10882;SDS011;5494;51.796;10.952;2022-11-30T10:44:06;80.47;;;21.40;;
10882;SDS011;5494;51.796;10.952;2022-11-30T10:46:44;90.03;;;22.37;;
10882;SDS011;5494;51.796;10.952;2022-11-30T10:49:22;113.30;;;24.90;;
10882;SDS011;5494;51.796;10.952;2022-11-30T10:52:00;135.67;;;25.93;;
10882;SDS011;5494;51.796;10.952;2022-11-30T10:54:34;112.63;;;24.97;;
10882;SDS011;5494;51.796;10.952;2022-11-30T10:57:03;71.70;;;21.90;;
10882;SDS011;5494;51.796;10.952;2022-11-30T10:59:37;92.30;;;22.47;;
10882;SDS011;5494;51.796;10.952;2022-11-30T11:05:08;120.17;;;24.83;;
10882;SDS011;5494;51.796;10.952;2022-11-30T11:07:48;126.47;;;27.03;;
10882;SDS011;5494;51.796;10.952;2022-11-30T11:10:29;145.67;;;25.93;;
10882;SDS011;5494;51.796;10.952;2022-11-30T11:13:02;120.90;;;26.07;;
10882;SDS011;5494;51.796;10.952;2022-11-30T11:15:31;129.53;;;23.90;;
10882;SDS011;5494;51.796;10.952;2022-11-30T11:18:16;126.83;;;24.23;;
10882;SDS011;5494;51.796;10.952;2022-11-30T11:20:58;77.53;;;23.87;;
10882;SDS011;5494;51.796;10.952;2022-11-30T11:23:34;67.30;;;22.17;;
10882;SDS011;5494;51.796;10.952;2022-11-30T11:26:04;169.10;;;26.80;;
10882;SDS011;5494;51.796;10.952;2022-11-30T11:28:42;147.33;;;27.20;;
10882;SDS011;5494;51.796;10.952;2022-11-30T11:31:16;95.27;;;23.60;;
10882;SDS011;5494;51.796;10.952;2022-11-30T11:34:01;252.33;;;28.47;;
10882;SDS011;5494;51.796;10.952;2022-11-30T11:36:31;227.50;;;34.10;;
10882;SDS011;5494;51.796;10.952;2022-11-30T11:39:07;237.80;;;36.53;;
10882;SDS011;5494;51.796;10.952;2022-11-30T11:41:53;303.97;;;38.87;;
10882;SDS011;5494;51.796;10.952;2022-11-30T11:44:21;83.53;;;27.10;;
10882;SDS011;5494;51.796;10.952;2022-11-30T11:46:53;275.10;;;41.00;;
10882;SDS011;5494;51.796;10.952;2022-11-30T11:49:25;242.50;;;38.27;;
10882;SDS011;5494;51.796;10.952;2022-11-30T11:51:58;209.47;;;37.33;;
10882;SDS011;5494;51.796;10.952;2022-11-30T11:54:32;310.67;;;47.70;;
10882;SDS011;5494;51.796;10.952;2022-11-30T11:57:06;223.63;;;38.23;;
10882;SDS011;5494;51.796;10.952;2022-11-30T11:59:39;184.27;;;39.00;;
10882;SDS011;5494;51.796;10.952;2022-11-30T12:02:18;182.33;;;39.37;;
10882;SDS011;5494;51.796;10.952;2022-11-30T12:05:00;253.60;;;43.30;;
10882;SDS011;5494;51.796;10.952;2022-11-30T12:07:39;176.63;;;39.33;;
10882;SDS011;5494;51.796;10.952;2022-11-30T12:10:22;111.43;;;34.67;;
10882;SDS011;5494;51.796;10.952;2022-11-30T12:13:17;223.37;;;39.60;;
10882;SDS011;5494;51.796;10.952;2022-11-30T12:15:51;101.17;;;34.63;;
10882;SDS011;5494;51.796;10.952;2022-11-30T12:18:36;90.27;;;35.77;;
10882;SDS011;5494;51.796;10.952;2022-11-30T12:21:19;85.13;;;35.87;;
10882;SDS011;5494;51.796;10.952;2022-11-30T12:24:09;78.37;;;35.70;;
10882;SDS011;5494;51.796;10.952;2022-11-30T12:27:02;89.43;;;36.33;;
10882;SDS011;5494;51.796;10.952;2022-11-30T12:29:44;86.30;;;35.87;;
10882;SDS011;5494;51.796;10.952;2022-11-30T12:32:28;73.50;;;35.77;;
10882;SDS011;5494;51.796;10.952;2022-11-30T12:35:18;75.67;;;34.27;;
10882;SDS011;5494;51.796;10.952;2022-11-30T12:38:02;80.33;;;35.47;;
10882;SDS011;5494;51.796;10.952;2022-11-30T12:40:49;79.73;;;35.07;;
10882;SDS011;5494;51.796;10.952;2022-11-30T12:43:34;80.47;;;36.83;;
10882;SDS011;5494;51.796;10.952;2022-11-30T12:46:13;78.43;;;35.90;;
10882;SDS011;5494;51.796;10.952;2022-11-30T12:48:52;81.80;;;36.73;;
10882;SDS011;5494;51.796;10.952;2022-11-30T12:51:42;77.20;;;35.60;;
10882;SDS011;5494;51.796;10.952;2022-11-30T12:54:21;90.53;;;37.53;;
10882;SDS011;5494;51.796;10.952;2022-11-30T12:57:03;83.73;;;37.47;;
10882;SDS011;5494;51.796;10.952;2022-11-30T12:59:45;81.90;;;35.30;;
10882;SDS011;5494;51.796;10.952;2022-11-30T13:02:29;85.27;;;37.17;;
10882;SDS011;5494;51.796;10.952;2022-11-30T13:05:19;81.20;;;35.23;;
10882;SDS011;5494;51.796;10.952;2022-11-30T13:07:57;80.57;;;35.60;;
10882;SDS011;5494;51.796;10.952;2022-11-30T13:10:35;70.13;;;33.40;;
10882;SDS011;5494;51.796;10.952;2022-11-30T13:13:10;84.37;;;35.70;;
10882;SDS011;5494;51.796;10.952;2022-11-30T13:15:44;75.30;;;35.47;;
10882;SDS011;5494;51.796;10.952;2022-11-30T13:18:16;78.17;;;34.93;;
10882;SDS011;5494;51.796;10.952;2022-11-30T13:20:48;77.60;;;36.67;;
10882;SDS011;5494;51.796;10.952;2022-11-30T13:23:31;80.07;;;35.60;;
10882;SDS011;5494;51.796;10.952;2022-11-30T13:26:07;79.33;;;36.70;;
10882;SDS011;5494;51.796;10.952;2022-11-30T13:28:53;82.37;;;37.10;;
10882;SDS011;5494;51.796;10.952;2022-11-30T13:31:46;71.23;;;35.10;;
10882;SDS011;5494;51.796;10.952;2022-11-30T13:34:31;77.67;;;35.50;;
10882;SDS011;5494;51.796;10.952;2022-11-30T13:37:00;79.83;;;36.73;;
10882;SDS011;5494;51.796;10.952;2022-11-30T13:39:36;78.13;;;35.97;;
10882;SDS011;5494;51.796;10.952;2022-11-30T13:42:30;79.10;;;33.67;;
10882;SDS011;5494;51.796;10.952;2022-11-30T13:45:24;83.50;;;36.23;;
10882;SDS011;5494;51.796;10.952;2022-11-30T13:48:15;89.27;;;37.07;;
10882;SDS011;5494;51.796;10.952;2022-11-30T13:50:55;85.50;;;37.67;;
10882;SDS011;5494;51.796;10.952;2022-11-30T13:53:25;86.47;;;37.23;;
10882;SDS011;5494;51.796;10.952;2022-11-30T13:56:02;88.97;;;37.60;;
10882;SDS011;5494;51.796;10.952;2022-11-30T14:05:35;81.37;;;37.47;;
10882;SDS011;5494;51.796;10.952;2022-11-30T14:17:16;78.97;;;34.47;;
10882;SDS011;5494;51.796;10.952;2022-11-30T14:19:51;85.83;;;36.73;;
10882;SDS011;5494;51.796;10.952;2022-11-30T14:22:26;87.40;;;36.93;;
10882;SDS011;5494;51.796;10.952;2022-11-30T14:24:57;87.87;;;37.17;;
10882;SDS011;5494;51.796;10.952;2022-11-30T14:27:27;84.73;;;38.70;;
10882;SDS011;5494;51.796;10.952;2022-11-30T14:29:58;85.13;;;37.33;;
10882;SDS011;5494;51.796;10.952;2022-11-30T14:32:33;85.27;;;38.13;;
10882;SDS011;5494;51.796;10.952;2022-11-30T14:35:08;85.27;;;37.63;;
10882;SDS011;5494;51.796;10.952;2022-11-30T14:37:44;84.83;;;37.70;;
10882;SDS011;5494;51.796;10.952;2022-11-30T14:40:19;94.00;;;39.00;;
10882;SDS011;5494;51.796;10.952;2022-11-30T14:42:51;94.00;;;38.83;;
10882;SDS011;5494;51.796;10.952;2022-11-30T14:45:22;97.17;;;39.23;;
10882;SDS011;5494;51.796;10.952;2022-11-30T14:48:02;83.00;;;37.23;;
10882;SDS011;5494;51.796;10.952;2022-11-30T14:50:33;95.13;;;37.33;;
10882;SDS011;5494;51.796;10.952;2022-11-30T14:53:19;93.03;;;37.47;;
10882;SDS011;5494;51.796;10.952;2022-11-30T14:57:13;85.40;;;36.97;;
10882;SDS011;5494;51.796;10.952;2022-11-30T15:00:14;87.97;;;36.90;;
10882;SDS011;5494;51.796;10.952;2022-11-30T15:02:46;85.03;;;38.53;;
10882;SDS011;5494;51.796;10.952;2022-11-30T15:05:16;78.90;;;37.67;;
10882;SDS011;5494;51.796;10.952;2022-11-30T15:07:49;80.20;;;37.60;;
10882;SDS011;5494;51.796;10.952;2022-11-30T15:10:22;88.23;;;38.97;;
10882;SDS011;5494;51.796;10.952;2022-11-30T15:12:57;82.60;;;35.23;;